Terminal Aerodrome Forecast
Issued by NWS

Home | Current Version | Previous Version | Text Only | Print | Product List | Glossary On
Versions: 1 2 3 4 5 6 7 8 9 10 11 12 13 14
743
FTUS46 KMTR 141129
TAFOAK
TAF
KOAK 141129Z 1412/1518 28009KT P6SM FEW250
     FM142100 28013G20KT P6SM SKC
     FM150300 30008KT P6SM SKC
     FM150600 02003KT P6SM SKC=

USA.gov is the U.S. government's official web portal to all federal, state and local government web resources and services.